sensor_id;sensor_type;location;lat;lon;timestamp;P1;durP1;ratioP1;P2;durP2;ratioP2
66380;SDS011;53177;52.648;1.214;2022-08-14T00:00:01;10.70;;;8.10;;
66380;SDS011;53177;52.648;1.214;2022-08-14T00:02:33;11.98;;;7.90;;
66380;SDS011;53177;52.648;1.214;2022-08-14T00:04:58;11.33;;;8.27;;
66380;SDS011;53177;52.648;1.214;2022-08-14T00:07:24;12.05;;;8.70;;
66380;SDS011;53177;52.648;1.214;2022-08-14T00:09:49;12.20;;;9.00;;
66380;SDS011;53177;52.648;1.214;2022-08-14T00:12:15;14.37;;;9.37;;
66380;SDS011;53177;52.648;1.214;2022-08-14T00:14:40;14.07;;;8.88;;
66380;SDS011;53177;52.648;1.214;2022-08-14T00:17:05;11.57;;;9.00;;
66380;SDS011;53177;52.648;1.214;2022-08-14T00:19:31;10.17;;;7.97;;
66380;SDS011;53177;52.648;1.214;2022-08-14T00:21:56;15.03;;;8.67;;
66380;SDS011;53177;52.648;1.214;2022-08-14T00:24:22;13.47;;;7.97;;
66380;SDS011;53177;52.648;1.214;2022-08-14T00:26:47;12.85;;;8.32;;
66380;SDS011;53177;52.648;1.214;2022-08-14T00:29:27;9.63;;;7.27;;
66380;SDS011;53177;52.648;1.214;2022-08-14T00:31:54;12.07;;;8.00;;
66380;SDS011;53177;52.648;1.214;2022-08-14T00:34:20;10.77;;;8.17;;
66380;SDS011;53177;52.648;1.214;2022-08-14T00:36:45;11.88;;;8.45;;
66380;SDS011;53177;52.648;1.214;2022-08-14T00:39:12;11.70;;;8.53;;
66380;SDS011;53177;52.648;1.214;2022-08-14T00:41:39;14.50;;;8.65;;
66380;SDS011;53177;52.648;1.214;2022-08-14T00:44:05;11.80;;;8.30;;
66380;SDS011;53177;52.648;1.214;2022-08-14T00:46:31;15.57;;;8.95;;
66380;SDS011;53177;52.648;1.214;2022-08-14T00:48:56;12.87;;;8.73;;
66380;SDS011;53177;52.648;1.214;2022-08-14T00:51:21;12.97;;;8.67;;
66380;SDS011;53177;52.648;1.214;2022-08-14T00:53:47;11.80;;;8.93;;
66380;SDS011;53177;52.648;1.214;2022-08-14T00:56:14;13.20;;;9.25;;
66380;SDS011;53177;52.648;1.214;2022-08-14T00:58:40;11.93;;;8.90;;
66380;SDS011;53177;52.648;1.214;2022-08-14T01:01:07;12.98;;;9.02;;
66380;SDS011;53177;52.648;1.214;2022-08-14T01:03:35;12.77;;;9.43;;
66380;SDS011;53177;52.648;1.214;2022-08-14T01:06:04;11.98;;;8.73;;
66380;SDS011;53177;52.648;1.214;2022-08-14T01:08:34;13.13;;;8.68;;
66380;SDS011;53177;52.648;1.214;2022-08-14T01:11:03;14.73;;;9.05;;
66380;SDS011;53177;52.648;1.214;2022-08-14T01:13:31;11.57;;;8.80;;
66380;SDS011;53177;52.648;1.214;2022-08-14T01:16:02;11.93;;;9.17;;
66380;SDS011;53177;52.648;1.214;2022-08-14T01:18:30;13.73;;;9.85;;
66380;SDS011;53177;52.648;1.214;2022-08-14T01:21:20;14.80;;;9.65;;
66380;SDS011;53177;52.648;1.214;2022-08-14T01:23:48;12.80;;;9.07;;
66380;SDS011;53177;52.648;1.214;2022-08-14T01:26:16;12.32;;;9.30;;
66380;SDS011;53177;52.648;1.214;2022-08-14T01:28:47;13.37;;;9.77;;
66380;SDS011;53177;52.648;1.214;2022-08-14T01:31:20;12.75;;;9.27;;
66380;SDS011;53177;52.648;1.214;2022-08-14T01:33:49;13.20;;;9.52;;
66380;SDS011;53177;52.648;1.214;2022-08-14T01:36:17;13.63;;;10.00;;
66380;SDS011;53177;52.648;1.214;2022-08-14T01:38:48;13.27;;;9.65;;
66380;SDS011;53177;52.648;1.214;2022-08-14T01:41:17;14.23;;;9.50;;
66380;SDS011;53177;52.648;1.214;2022-08-14T01:43:51;12.93;;;9.57;;
66380;SDS011;53177;52.648;1.214;2022-08-14T01:46:22;14.88;;;10.15;;
66380;SDS011;53177;52.648;1.214;2022-08-14T01:48:49;14.68;;;10.82;;
66380;SDS011;53177;52.648;1.214;2022-08-14T01:51:19;15.48;;;11.40;;
66380;SDS011;53177;52.648;1.214;2022-08-14T01:53:52;15.30;;;11.27;;
66380;SDS011;53177;52.648;1.214;2022-08-14T01:56:24;15.48;;;10.88;;
66380;SDS011;53177;52.648;1.214;2022-08-14T01:59:02;15.77;;;12.02;;
66380;SDS011;53177;52.648;1.214;2022-08-14T02:01:28;14.18;;;11.02;;
66380;SDS011;53177;52.648;1.214;2022-08-14T02:03:54;15.43;;;11.40;;
66380;SDS011;53177;52.648;1.214;2022-08-14T02:06:20;14.80;;;11.80;;
66380;SDS011;53177;52.648;1.214;2022-08-14T02:08:45;17.23;;;12.80;;
66380;SDS011;53177;52.648;1.214;2022-08-14T02:11:11;17.77;;;13.07;;
66380;SDS011;53177;52.648;1.214;2022-08-14T02:16:24;17.33;;;12.50;;
66380;SDS011;53177;52.648;1.214;2022-08-14T02:18:52;15.15;;;12.27;;
66380;SDS011;53177;52.648;1.214;2022-08-14T02:21:18;15.90;;;12.73;;
66380;SDS011;53177;52.648;1.214;2022-08-14T02:23:45;18.23;;;12.85;;
66380;SDS011;53177;52.648;1.214;2022-08-14T02:26:14;17.38;;;13.18;;
66380;SDS011;53177;52.648;1.214;2022-08-14T02:28:42;17.20;;;13.00;;
66380;SDS011;53177;52.648;1.214;2022-08-14T02:31:10;18.53;;;14.30;;
66380;SDS011;53177;52.648;1.214;2022-08-14T02:33:36;18.20;;;13.93;;
66380;SDS011;53177;52.648;1.214;2022-08-14T02:36:02;17.43;;;14.00;;
66380;SDS011;53177;52.648;1.214;2022-08-14T02:38:29;18.67;;;13.73;;
66380;SDS011;53177;52.648;1.214;2022-08-14T02:40:57;19.30;;;13.75;;
66380;SDS011;53177;52.648;1.214;2022-08-14T02:43:24;17.00;;;12.90;;
66380;SDS011;53177;52.648;1.214;2022-08-14T02:45:51;18.77;;;13.30;;
66380;SDS011;53177;52.648;1.214;2022-08-14T02:48:16;16.80;;;13.03;;
66380;SDS011;53177;52.648;1.214;2022-08-14T02:50:41;17.00;;;13.10;;
66380;SDS011;53177;52.648;1.214;2022-08-14T02:53:08;17.23;;;13.90;;
66380;SDS011;53177;52.648;1.214;2022-08-14T02:55:34;17.75;;;14.13;;
66380;SDS011;53177;52.648;1.214;2022-08-14T02:57:59;18.70;;;14.73;;
66380;SDS011;53177;52.648;1.214;2022-08-14T03:00:25;23.55;;;15.88;;
66380;SDS011;53177;52.648;1.214;2022-08-14T03:02:51;22.20;;;15.25;;
66380;SDS011;53177;52.648;1.214;2022-08-14T03:05:16;21.87;;;15.10;;
66380;SDS011;53177;52.648;1.214;2022-08-14T03:07:42;20.67;;;16.53;;
66380;SDS011;53177;52.648;1.214;2022-08-14T03:10:08;19.75;;;16.33;;
66380;SDS011;53177;52.648;1.214;2022-08-14T03:12:35;20.65;;;16.02;;
66380;SDS011;53177;52.648;1.214;2022-08-14T03:15:00;25.27;;;18.80;;
66380;SDS011;53177;52.648;1.214;2022-08-14T03:17:37;23.88;;;18.70;;
66380;SDS011;53177;52.648;1.214;2022-08-14T03:20:02;24.87;;;19.60;;
66380;SDS011;53177;52.648;1.214;2022-08-14T03:22:30;26.73;;;20.75;;
66380;SDS011;53177;52.648;1.214;2022-08-14T03:24:56;24.08;;;19.52;;
66380;SDS011;53177;52.648;1.214;2022-08-14T03:27:22;26.57;;;20.70;;
66380;SDS011;53177;52.648;1.214;2022-08-14T03:29:47;27.93;;;20.53;;
66380;SDS011;53177;52.648;1.214;2022-08-14T03:32:13;26.95;;;20.48;;
66380;SDS011;53177;52.648;1.214;2022-08-14T03:34:38;25.27;;;19.43;;
66380;SDS011;53177;52.648;1.214;2022-08-14T03:37:04;25.27;;;18.03;;
66380;SDS011;53177;52.648;1.214;2022-08-14T03:39:29;25.40;;;19.07;;
66380;SDS011;53177;52.648;1.214;2022-08-14T03:41:55;23.47;;;18.23;;
66380;SDS011;53177;52.648;1.214;2022-08-14T03:44:22;24.25;;;18.75;;
66380;SDS011;53177;52.648;1.214;2022-08-14T03:46:48;26.00;;;19.73;;
66380;SDS011;53177;52.648;1.214;2022-08-14T03:49:15;19.27;;;15.23;;
66380;SDS011;53177;52.648;1.214;2022-08-14T03:51:44;23.83;;;18.40;;
66380;SDS011;53177;52.648;1.214;2022-08-14T03:54:10;24.67;;;19.13;;
66380;SDS011;53177;52.648;1.214;2022-08-14T03:56:36;28.65;;;21.90;;
66380;SDS011;53177;52.648;1.214;2022-08-14T03:59:03;33.10;;;22.80;;
66380;SDS011;53177;52.648;1.214;2022-08-14T04:01:32;29.27;;;22.95;;
66380;SDS011;53177;52.648;1.214;2022-08-14T04:03:57;35.22;;;25.02;;
66380;SDS011;53177;52.648;1.214;2022-08-14T04:06:26;31.87;;;24.73;;
66380;SDS011;53177;52.648;1.214;2022-08-14T04:08:52;32.97;;;24.85;;
66380;SDS011;53177;52.648;1.214;2022-08-14T04:11:18;33.77;;;24.70;;
66380;SDS011;53177;52.648;1.214;2022-08-14T04:13:43;33.17;;;24.00;;
66380;SDS011;53177;52.648;1.214;2022-08-14T04:16:17;34.80;;;25.05;;
66380;SDS011;53177;52.648;1.214;2022-08-14T04:18:51;34.30;;;25.60;;
66380;SDS011;53177;52.648;1.214;2022-08-14T04:21:19;35.28;;;25.55;;
66380;SDS011;53177;52.648;1.214;2022-08-14T04:23:49;33.63;;;25.20;;
66380;SDS011;53177;52.648;1.214;2022-08-14T04:26:16;36.08;;;26.40;;
66380;SDS011;53177;52.648;1.214;2022-08-14T04:28:47;36.60;;;25.70;;
66380;SDS011;53177;52.648;1.214;2022-08-14T04:31:19;33.70;;;25.53;;
66380;SDS011;53177;52.648;1.214;2022-08-14T04:33:48;33.22;;;24.67;;
66380;SDS011;53177;52.648;1.214;2022-08-14T04:36:18;31.23;;;22.73;;
66380;SDS011;53177;52.648;1.214;2022-08-14T04:38:48;30.58;;;22.60;;
66380;SDS011;53177;52.648;1.214;2022-08-14T04:41:33;30.25;;;21.98;;
66380;SDS011;53177;52.648;1.214;2022-08-14T04:44:20;32.40;;;22.13;;
66380;SDS011;53177;52.648;1.214;2022-08-14T04:46:48;29.52;;;20.55;;
66380;SDS011;53177;52.648;1.214;2022-08-14T04:49:51;31.65;;;23.45;;
66380;SDS011;53177;52.648;1.214;2022-08-14T04:52:19;33.55;;;24.35;;
66380;SDS011;53177;52.648;1.214;2022-08-14T04:54:46;38.95;;;26.70;;
66380;SDS011;53177;52.648;1.214;2022-08-14T04:57:11;38.57;;;27.60;;
66380;SDS011;53177;52.648;1.214;2022-08-14T04:59:39;39.00;;;27.13;;
66380;SDS011;53177;52.648;1.214;2022-08-14T05:02:04;37.23;;;25.70;;
66380;SDS011;53177;52.648;1.214;2022-08-14T05:04:29;39.00;;;28.10;;
66380;SDS011;53177;52.648;1.214;2022-08-14T05:06:55;40.47;;;28.20;;
66380;SDS011;53177;52.648;1.214;2022-08-14T05:09:21;38.87;;;27.10;;
66380;SDS011;53177;52.648;1.214;2022-08-14T05:11:47;38.92;;;27.13;;
66380;SDS011;53177;52.648;1.214;2022-08-14T05:14:14;36.28;;;26.60;;
66380;SDS011;53177;52.648;1.214;2022-08-14T05:16:40;37.50;;;26.52;;
66380;SDS011;53177;52.648;1.214;2022-08-14T05:19:05;39.70;;;26.60;;
66380;SDS011;53177;52.648;1.214;2022-08-14T05:21:33;36.22;;;25.58;;
66380;SDS011;53177;52.648;1.214;2022-08-14T05:23:59;36.37;;;24.90;;
66380;SDS011;53177;52.648;1.214;2022-08-14T05:26:24;33.10;;;24.27;;
66380;SDS011;53177;52.648;1.214;2022-08-14T05:28:49;32.60;;;22.77;;
66380;SDS011;53177;52.648;1.214;2022-08-14T05:31:15;34.40;;;24.45;;
66380;SDS011;53177;52.648;1.214;2022-08-14T05:33:41;34.93;;;24.33;;
66380;SDS011;53177;52.648;1.214;2022-08-14T05:36:09;32.95;;;22.92;;
66380;SDS011;53177;52.648;1.214;2022-08-14T05:38:37;33.78;;;23.05;;
66380;SDS011;53177;52.648;1.214;2022-08-14T05:41:07;32.35;;;23.02;;
66380;SDS011;53177;52.648;1.214;2022-08-14T05:43:36;33.25;;;23.85;;
66380;SDS011;53177;52.648;1.214;2022-08-14T05:46:03;32.77;;;23.30;;
66380;SDS011;53177;52.648;1.214;2022-08-14T05:48:29;34.40;;;24.77;;
66380;SDS011;53177;52.648;1.214;2022-08-14T05:50:55;38.83;;;24.90;;
66380;SDS011;53177;52.648;1.214;2022-08-14T05:53:21;34.17;;;24.45;;
66380;SDS011;53177;52.648;1.214;2022-08-14T05:55:48;37.47;;;24.27;;
66380;SDS011;53177;52.648;1.214;2022-08-14T05:58:14;34.78;;;24.42;;
66380;SDS011;53177;52.648;1.214;2022-08-14T06:00:40;33.20;;;24.80;;
66380;SDS011;53177;52.648;1.214;2022-08-14T06:03:11;36.03;;;24.05;;
66380;SDS011;53177;52.648;1.214;2022-08-14T06:05:39;34.80;;;23.85;;
66380;SDS011;53177;52.648;1.214;2022-08-14T06:08:12;35.92;;;23.63;;
66380;SDS011;53177;52.648;1.214;2022-08-14T06:10:42;31.90;;;23.00;;
66380;SDS011;53177;52.648;1.214;2022-08-14T06:13:08;29.90;;;22.20;;
66380;SDS011;53177;52.648;1.214;2022-08-14T06:15:33;33.93;;;21.83;;
66380;SDS011;53177;52.648;1.214;2022-08-14T06:17:59;33.17;;;22.60;;
66380;SDS011;53177;52.648;1.214;2022-08-14T06:20:25;28.10;;;21.50;;
66380;SDS011;53177;52.648;1.214;2022-08-14T06:22:52;29.30;;;20.60;;
66380;SDS011;53177;52.648;1.214;2022-08-14T06:25:18;27.30;;;19.97;;
66380;SDS011;53177;52.648;1.214;2022-08-14T06:27:47;26.65;;;20.10;;
66380;SDS011;53177;52.648;1.214;2022-08-14T06:30:14;26.57;;;18.53;;
66380;SDS011;53177;52.648;1.214;2022-08-14T06:32:42;28.55;;;18.67;;
66380;SDS011;53177;52.648;1.214;2022-08-14T06:35:08;25.30;;;17.95;;
66380;SDS011;53177;52.648;1.214;2022-08-14T06:37:44;25.00;;;17.25;;
66380;SDS011;53177;52.648;1.214;2022-08-14T06:40:14;25.13;;;18.25;;
66380;SDS011;53177;52.648;1.214;2022-08-14T06:42:42;23.03;;;18.20;;
66380;SDS011;53177;52.648;1.214;2022-08-14T06:45:08;25.30;;;17.52;;
66380;SDS011;53177;52.648;1.214;2022-08-14T06:47:35;23.90;;;17.30;;
66380;SDS011;53177;52.648;1.214;2022-08-14T06:50:05;23.83;;;17.33;;
66380;SDS011;53177;52.648;1.214;2022-08-14T06:52:33;23.05;;;16.20;;
66380;SDS011;53177;52.648;1.214;2022-08-14T06:54:58;21.27;;;15.88;;
66380;SDS011;53177;52.648;1.214;2022-08-14T06:57:24;23.03;;;16.90;;
66380;SDS011;53177;52.648;1.214;2022-08-14T06:59:58;24.98;;;16.48;;
66380;SDS011;53177;52.648;1.214;2022-08-14T07:02:24;21.40;;;15.30;;
66380;SDS011;53177;52.648;1.214;2022-08-14T07:05:08;18.55;;;13.50;;
66380;SDS011;53177;52.648;1.214;2022-08-14T07:07:52;18.13;;;13.55;;
66380;SDS011;53177;52.648;1.214;2022-08-14T07:10:18;17.30;;;13.43;;
66380;SDS011;53177;52.648;1.214;2022-08-14T07:12:46;16.70;;;11.20;;
66380;SDS011;53177;52.648;1.214;2022-08-14T07:15:12;15.77;;;10.93;;
66380;SDS011;53177;52.648;1.214;2022-08-14T07:17:47;12.43;;;9.40;;
66380;SDS011;53177;52.648;1.214;2022-08-14T07:20:14;11.90;;;8.57;;
66380;SDS011;53177;52.648;1.214;2022-08-14T07:22:44;10.73;;;8.50;;
66380;SDS011;53177;52.648;1.214;2022-08-14T07:25:13;11.05;;;7.70;;
66380;SDS011;53177;52.648;1.214;2022-08-14T07:27:39;9.88;;;6.93;;
66380;SDS011;53177;52.648;1.214;2022-08-14T07:30:06;10.90;;;6.90;;
66380;SDS011;53177;52.648;1.214;2022-08-14T07:32:32;8.30;;;6.30;;
66380;SDS011;53177;52.648;1.214;2022-08-14T07:34:57;10.87;;;5.80;;
66380;SDS011;53177;52.648;1.214;2022-08-14T07:37:23;9.07;;;6.20;;
66380;SDS011;53177;52.648;1.214;2022-08-14T07:39:49;10.20;;;6.00;;
66380;SDS011;53177;52.648;1.214;2022-08-14T07:42:15;8.60;;;5.40;;
66380;SDS011;53177;52.648;1.214;2022-08-14T07:44:41;7.17;;;4.93;;
66380;SDS011;53177;52.648;1.214;2022-08-14T07:47:06;7.87;;;5.07;;
66380;SDS011;53177;52.648;1.214;2022-08-14T07:49:31;8.20;;;5.27;;
66380;SDS011;53177;52.648;1.214;2022-08-14T07:51:58;8.15;;;4.45;;
66380;SDS011;53177;52.648;1.214;2022-08-14T07:54:25;8.65;;;4.70;;
66380;SDS011;53177;52.648;1.214;2022-08-14T07:56:51;6.80;;;4.20;;
66380;SDS011;53177;52.648;1.214;2022-08-14T07:59:16;7.85;;;4.15;;
66380;SDS011;53177;52.648;1.214;2022-08-14T08:01:42;7.23;;;4.40;;
66380;SDS011;53177;52.648;1.214;2022-08-14T08:04:08;7.63;;;4.35;;
66380;SDS011;53177;52.648;1.214;2022-08-14T08:06:34;9.30;;;4.45;;
66380;SDS011;53177;52.648;1.214;2022-08-14T08:09:02;6.40;;;4.20;;
66380;SDS011;53177;52.648;1.214;2022-08-14T08:11:35;9.53;;;4.07;;
66380;SDS011;53177;52.648;1.214;2022-08-14T08:14:02;7.97;;;4.20;;
66380;SDS011;53177;52.648;1.214;2022-08-14T08:16:31;8.13;;;3.85;;
66380;SDS011;53177;52.648;1.214;2022-08-14T08:18:58;7.35;;;3.90;;
66380;SDS011;53177;52.648;1.214;2022-08-14T08:21:24;5.97;;;3.70;;
66380;SDS011;53177;52.648;1.214;2022-08-14T08:23:50;6.82;;;3.50;;
66380;SDS011;53177;52.648;1.214;2022-08-14T08:26:16;7.50;;;3.78;;
66380;SDS011;53177;52.648;1.214;2022-08-14T08:28:41;7.00;;;3.77;;
66380;SDS011;53177;52.648;1.214;2022-08-14T08:31:07;5.80;;;3.60;;
66380;SDS011;53177;52.648;1.214;2022-08-14T08:33:33;9.77;;;3.90;;
66380;SDS011;53177;52.648;1.214;2022-08-14T08:36:06;6.35;;;3.50;;
66380;SDS011;53177;52.648;1.214;2022-08-14T08:38:35;6.77;;;3.40;;
66380;SDS011;53177;52.648;1.214;2022-08-14T08:41:00;7.22;;;3.28;;
66380;SDS011;53177;52.648;1.214;2022-08-14T08:43:30;6.00;;;3.20;;
66380;SDS011;53177;52.648;1.214;2022-08-14T08:46:02;5.70;;;3.47;;
66380;SDS011;53177;52.648;1.214;2022-08-14T08:48:30;6.55;;;3.42;;
66380;SDS011;53177;52.648;1.214;2022-08-14T08:51:08;6.15;;;3.47;;
66380;SDS011;53177;52.648;1.214;2022-08-14T08:53:43;5.72;;;3.35;;
66380;SDS011;53177;52.648;1.214;2022-08-14T08:56:08;8.27;;;3.57;;
66380;SDS011;53177;52.648;1.214;2022-08-14T08:58:36;6.47;;;3.00;;
66380;SDS011;53177;52.648;1.214;2022-08-14T09:01:01;7.43;;;3.00;;
66380;SDS011;53177;52.648;1.214;2022-08-14T09:03:27;5.17;;;3.20;;
66380;SDS011;53177;52.648;1.214;2022-08-14T09:05:55;7.28;;;3.10;;
66380;SDS011;53177;52.648;1.214;2022-08-14T09:08:28;6.80;;;3.20;;
66380;SDS011;53177;52.648;1.214;2022-08-14T09:10:55;6.13;;;3.00;;
66380;SDS011;53177;52.648;1.214;2022-08-14T09:13:22;7.80;;;2.80;;
66380;SDS011;53177;52.648;1.214;2022-08-14T09:15:51;7.55;;;3.20;;
66380;SDS011;53177;52.648;1.214;2022-08-14T09:18:18;4.78;;;3.00;;
66380;SDS011;53177;52.648;1.214;2022-08-14T09:20:46;6.18;;;3.00;;
66380;SDS011;53177;52.648;1.214;2022-08-14T09:23:13;4.45;;;2.70;;
66380;SDS011;53177;52.648;1.214;2022-08-14T09:25:40;4.97;;;2.90;;
66380;SDS011;53177;52.648;1.214;2022-08-14T09:28:08;5.55;;;3.03;;
66380;SDS011;53177;52.648;1.214;2022-08-14T09:30:35;5.25;;;3.00;;
66380;SDS011;53177;52.648;1.214;2022-08-14T09:41:45;4.97;;;2.90;;
66380;SDS011;53177;52.648;1.214;2022-08-14T09:47:14;5.33;;;2.70;;
66380;SDS011;53177;52.648;1.214;2022-08-14T09:49:40;5.75;;;3.00;;
66380;SDS011;53177;52.648;1.214;2022-08-14T09:52:13;5.07;;;2.90;;
66380;SDS011;53177;52.648;1.214;2022-08-14T09:54:45;4.43;;;2.83;;
66380;SDS011;53177;52.648;1.214;2022-08-14T09:57:25;4.50;;;2.88;;
66380;SDS011;53177;52.648;1.214;2022-08-14T09:59:51;5.07;;;2.93;;
66380;SDS011;53177;52.648;1.214;2022-08-14T10:02:21;6.20;;;2.83;;
66380;SDS011;53177;52.648;1.214;2022-08-14T10:04:57;5.20;;;2.83;;
66380;SDS011;53177;52.648;1.214;2022-08-14T10:07:29;5.30;;;2.80;;
66380;SDS011;53177;52.648;1.214;2022-08-14T10:09:56;6.57;;;3.00;;
66380;SDS011;53177;52.648;1.214;2022-08-14T10:12:21;6.43;;;2.70;;
66380;SDS011;53177;52.648;1.214;2022-08-14T10:14:46;6.47;;;3.00;;
66380;SDS011;53177;52.648;1.214;2022-08-14T10:17:20;5.37;;;2.80;;
66380;SDS011;53177;52.648;1.214;2022-08-14T10:19:50;5.72;;;2.60;;
66380;SDS011;53177;52.648;1.214;2022-08-14T10:22:16;4.73;;;2.90;;
66380;SDS011;53177;52.648;1.214;2022-08-14T10:24:52;5.57;;;2.80;;
66380;SDS011;53177;52.648;1.214;2022-08-14T10:27:19;4.82;;;2.70;;
66380;SDS011;53177;52.648;1.214;2022-08-14T10:29:50;4.60;;;2.80;;
66380;SDS011;53177;52.648;1.214;2022-08-14T10:32:21;6.57;;;2.78;;
66380;SDS011;53177;52.648;1.214;2022-08-14T10:34:47;5.00;;;2.57;;
66380;SDS011;53177;52.648;1.214;2022-08-14T10:37:14;4.97;;;2.53;;
66380;SDS011;53177;52.648;1.214;2022-08-14T10:39:41;5.82;;;2.60;;
66380;SDS011;53177;52.648;1.214;2022-08-14T10:42:09;4.70;;;2.60;;
66380;SDS011;53177;52.648;1.214;2022-08-14T10:44:38;6.33;;;2.83;;
66380;SDS011;53177;52.648;1.214;2022-08-14T10:47:10;9.77;;;2.40;;
66380;SDS011;53177;52.648;1.214;2022-08-14T10:49:38;6.28;;;2.67;;
66380;SDS011;53177;52.648;1.214;2022-08-14T10:52:20;5.28;;;2.45;;
66380;SDS011;53177;52.648;1.214;2022-08-14T10:54:48;4.93;;;2.63;;
66380;SDS011;53177;52.648;1.214;2022-08-14T10:57:25;3.90;;;2.40;;
66380;SDS011;53177;52.648;1.214;2022-08-14T10:59:52;5.45;;;2.60;;
66380;SDS011;53177;52.648;1.214;2022-08-14T11:02:30;4.50;;;2.50;;
66380;SDS011;53177;52.648;1.214;2022-08-14T11:07:26;4.75;;;2.45;;
66380;SDS011;53177;52.648;1.214;2022-08-14T11:09:55;4.00;;;2.30;;
66380;SDS011;53177;52.648;1.214;2022-08-14T11:12:23;6.30;;;2.40;;
66380;SDS011;53177;52.648;1.214;2022-08-14T11:14:51;6.55;;;2.63;;
66380;SDS011;53177;52.648;1.214;2022-08-14T11:17:19;6.82;;;2.50;;
66380;SDS011;53177;52.648;1.214;2022-08-14T11:19:44;4.00;;;2.70;;
66380;SDS011;53177;52.648;1.214;2022-08-14T11:22:11;4.90;;;2.60;;
66380;SDS011;53177;52.648;1.214;2022-08-14T11:24:39;5.63;;;2.50;;
66380;SDS011;53177;52.648;1.214;2022-08-14T11:27:07;4.70;;;2.30;;
66380;SDS011;53177;52.648;1.214;2022-08-14T11:29:33;4.40;;;2.47;;
66380;SDS011;53177;52.648;1.214;2022-08-14T11:32:00;5.10;;;2.40;;
66380;SDS011;53177;52.648;1.214;2022-08-14T11:34:27;5.68;;;2.65;;
66380;SDS011;53177;52.648;1.214;2022-08-14T11:36:52;5.83;;;2.70;;
66380;SDS011;53177;52.648;1.214;2022-08-14T11:39:19;5.75;;;3.13;;
66380;SDS011;53177;52.648;1.214;2022-08-14T11:41:46;4.85;;;2.80;;
66380;SDS011;53177;52.648;1.214;2022-08-14T11:44:11;4.30;;;2.60;;
66380;SDS011;53177;52.648;1.214;2022-08-14T11:46:36;4.77;;;2.50;;
66380;SDS011;53177;52.648;1.214;2022-08-14T11:49:02;5.18;;;2.70;;
66380;SDS011;53177;52.648;1.214;2022-08-14T11:51:28;4.20;;;2.77;;
66380;SDS011;53177;52.648;1.214;2022-08-14T11:53:55;4.63;;;2.78;;
66380;SDS011;53177;52.648;1.214;2022-08-14T11:56:24;5.07;;;2.90;;
66380;SDS011;53177;52.648;1.214;2022-08-14T11:58:59;6.50;;;2.70;;
66380;SDS011;53177;52.648;1.214;2022-08-14T12:01:29;5.80;;;3.10;;
66380;SDS011;53177;52.648;1.214;2022-08-14T12:04:06;6.10;;;2.50;;
66380;SDS011;53177;52.648;1.214;2022-08-14T12:06:50;5.47;;;2.78;;
66380;SDS011;53177;52.648;1.214;2022-08-14T12:09:33;5.68;;;2.97;;
66380;SDS011;53177;52.648;1.214;2022-08-14T12:12:00;4.32;;;2.65;;
66380;SDS011;53177;52.648;1.214;2022-08-14T12:17:46;4.37;;;2.33;;
66380;SDS011;53177;52.648;1.214;2022-08-14T12:20:17;4.38;;;2.95;;
66380;SDS011;53177;52.648;1.214;2022-08-14T12:22:52;4.20;;;2.50;;
66380;SDS011;53177;52.648;1.214;2022-08-14T12:25:19;6.20;;;3.17;;
66380;SDS011;53177;52.648;1.214;2022-08-14T12:27:47;5.32;;;3.00;;
66380;SDS011;53177;52.648;1.214;2022-08-14T12:30:27;4.90;;;2.88;;
66380;SDS011;53177;52.648;1.214;2022-08-14T12:33:04;5.10;;;3.10;;
66380;SDS011;53177;52.648;1.214;2022-08-14T12:35:42;5.53;;;3.20;;
66380;SDS011;53177;52.648;1.214;2022-08-14T12:38:11;4.28;;;2.92;;
66380;SDS011;53177;52.648;1.214;2022-08-14T12:40:47;6.05;;;2.95;;
66380;SDS011;53177;52.648;1.214;2022-08-14T12:43:15;6.00;;;3.60;;
66380;SDS011;53177;52.648;1.214;2022-08-14T12:45:46;5.90;;;3.38;;
66380;SDS011;53177;52.648;1.214;2022-08-14T12:48:14;5.60;;;3.27;;
66380;SDS011;53177;52.648;1.214;2022-08-14T12:50:40;6.72;;;3.20;;
66380;SDS011;53177;52.648;1.214;2022-08-14T12:53:08;5.72;;;3.30;;
66380;SDS011;53177;52.648;1.214;2022-08-14T12:55:34;4.60;;;3.08;;
66380;SDS011;53177;52.648;1.214;2022-08-14T12:58:03;4.93;;;2.97;;
66380;SDS011;53177;52.648;1.214;2022-08-14T13:00:31;4.97;;;3.07;;
66380;SDS011;53177;52.648;1.214;2022-08-14T13:02:58;4.70;;;2.90;;
66380;SDS011;53177;52.648;1.214;2022-08-14T13:05:26;5.22;;;3.03;;
66380;SDS011;53177;52.648;1.214;2022-08-14T13:07:57;4.63;;;3.03;;
66380;SDS011;53177;52.648;1.214;2022-08-14T13:10:24;5.97;;;3.22;;
66380;SDS011;53177;52.648;1.214;2022-08-14T13:12:54;4.63;;;2.90;;
66380;SDS011;53177;52.648;1.214;2022-08-14T13:15:22;4.60;;;2.78;;
66380;SDS011;53177;52.648;1.214;2022-08-14T13:17:49;5.43;;;2.95;;
66380;SDS011;53177;52.648;1.214;2022-08-14T13:20:18;5.33;;;2.87;;
66380;SDS011;53177;52.648;1.214;2022-08-14T13:22:46;5.93;;;3.03;;
66380;SDS011;53177;52.648;1.214;2022-08-14T13:25:16;5.03;;;3.10;;
66380;SDS011;53177;52.648;1.214;2022-08-14T13:27:47;6.05;;;2.80;;
66380;SDS011;53177;52.648;1.214;2022-08-14T13:30:15;4.93;;;3.20;;
66380;SDS011;53177;52.648;1.214;2022-08-14T13:32:44;5.07;;;3.20;;
66380;SDS011;53177;52.648;1.214;2022-08-14T13:35:10;5.78;;;2.92;;
66380;SDS011;53177;52.648;1.214;2022-08-14T13:37:40;4.50;;;2.70;;
66380;SDS011;53177;52.648;1.214;2022-08-14T13:40:06;4.55;;;2.95;;
66380;SDS011;53177;52.648;1.214;2022-08-14T13:42:32;6.47;;;3.00;;
66380;SDS011;53177;52.648;1.214;2022-08-14T13:44:59;4.80;;;2.70;;
66380;SDS011;53177;52.648;1.214;2022-08-14T13:47:26;5.68;;;2.95;;
66380;SDS011;53177;52.648;1.214;2022-08-14T13:49:54;5.82;;;3.35;;
66380;SDS011;53177;52.648;1.214;2022-08-14T13:52:26;6.10;;;3.20;;
66380;SDS011;53177;52.648;1.214;2022-08-14T13:54:58;5.90;;;2.90;;
66380;SDS011;53177;52.648;1.214;2022-08-14T13:57:30;5.25;;;2.65;;
66380;SDS011;53177;52.648;1.214;2022-08-14T13:59:58;5.68;;;3.13;;
66380;SDS011;53177;52.648;1.214;2022-08-14T14:02:27;4.72;;;3.20;;
66380;SDS011;53177;52.648;1.214;2022-08-14T14:04:54;4.83;;;2.80;;
66380;SDS011;53177;52.648;1.214;2022-08-14T14:07:24;6.75;;;3.35;;
66380;SDS011;53177;52.648;1.214;2022-08-14T14:09:52;6.30;;;3.40;;
66380;SDS011;53177;52.648;1.214;2022-08-14T14:12:20;6.60;;;3.20;;
66380;SDS011;53177;52.648;1.214;2022-08-14T14:14:47;4.32;;;2.92;;
66380;SDS011;53177;52.648;1.214;2022-08-14T14:17:13;5.13;;;3.00;;
66380;SDS011;53177;52.648;1.214;2022-08-14T14:19:42;6.30;;;3.53;;
66380;SDS011;53177;52.648;1.214;2022-08-14T14:22:11;6.35;;;3.65;;
66380;SDS011;53177;52.648;1.214;2022-08-14T14:24:43;6.37;;;3.70;;
66380;SDS011;53177;52.648;1.214;2022-08-14T14:27:10;4.97;;;3.47;;
66380;SDS011;53177;52.648;1.214;2022-08-14T14:29:38;7.18;;;4.00;;
66380;SDS011;53177;52.648;1.214;2022-08-14T14:32:11;7.28;;;4.05;;
66380;SDS011;53177;52.648;1.214;2022-08-14T14:34:36;6.78;;;4.15;;
66380;SDS011;53177;52.648;1.214;2022-08-14T14:37:05;6.83;;;4.63;;
66380;SDS011;53177;52.648;1.214;2022-08-14T14:39:35;6.57;;;4.20;;
66380;SDS011;53177;52.648;1.214;2022-08-14T14:42:02;6.85;;;4.38;;
66380;SDS011;53177;52.648;1.214;2022-08-14T14:44:32;5.93;;;4.10;;
66380;SDS011;53177;52.648;1.214;2022-08-14T14:46:59;6.03;;;4.00;;
66380;SDS011;53177;52.648;1.214;2022-08-14T14:49:26;5.77;;;4.30;;
66380;SDS011;53177;52.648;1.214;2022-08-14T14:51:55;7.78;;;3.92;;
66380;SDS011;53177;52.648;1.214;2022-08-14T14:54:21;5.68;;;4.05;;
66380;SDS011;53177;52.648;1.214;2022-08-14T14:56:47;6.40;;;4.15;;
66380;SDS011;53177;52.648;1.214;2022-08-14T14:59:15;6.37;;;4.13;;
66380;SDS011;53177;52.648;1.214;2022-08-14T15:01:43;6.50;;;4.53;;